createdAt,value
2018-04-10T00:00:08.001Z,64.80
2018-04-10T00:02:36.456Z,64.90
2018-04-10T00:05:04.329Z,65.00
2018-04-10T00:07:31.819Z,65.00
2018-04-10T00:09:59.283Z,65.00
2018-04-10T00:12:26.775Z,65.10
2018-04-10T00:14:54.357Z,65.40
2018-04-10T00:17:22.247Z,65.20
2018-04-10T00:19:50.134Z,65.40
2018-04-10T00:22:17.629Z,65.40
2018-04-10T00:24:45.082Z,65.60
2018-04-10T00:27:12.584Z,65.70
2018-04-10T00:29:40.454Z,65.60
2018-04-10T00:32:07.936Z,65.60
2018-04-10T00:34:35.807Z,65.90
2018-04-10T00:37:03.338Z,65.90
2018-04-10T00:39:30.811Z,65.90
2018-04-10T00:41:58.375Z,66.10
2018-04-10T00:44:25.864Z,66.30
2018-04-10T00:46:53.728Z,66.50
2018-04-10T00:49:21.653Z,66.60
2018-04-10T00:51:49.138Z,66.60
2018-04-10T00:54:16.691Z,66.60
2018-04-10T00:56:44.155Z,66.60
2018-04-10T00:59:11.650Z,66.90
2018-04-10T01:01:39.526Z,67.10
2018-04-10T01:04:07.063Z,67.10
2018-04-10T01:06:34.526Z,67.20
2018-04-10T01:09:02.017Z,67.20
2018-04-10T01:11:29.953Z,67.20
2018-04-10T01:13:57.432Z,67.20
2018-04-10T01:16:24.896Z,67.20
2018-04-10T01:18:52.383Z,67.60
2018-04-10T01:21:20.230Z,67.50
2018-04-10T01:23:47.707Z,67.50
2018-04-10T01:26:16.083Z,67.60
2018-04-10T01:28:44.027Z,67.70
2018-04-10T01:31:11.480Z,67.60
2018-04-10T01:33:38.976Z,67.70
2018-04-10T01:36:06.525Z,67.80
2018-04-10T01:38:34.089Z,67.80
2018-04-10T01:41:01.548Z,67.80
2018-04-10T01:43:29.102Z,68.00
2018-04-10T01:45:56.560Z,68.00
2018-04-10T01:48:24.161Z,68.10
2018-04-10T01:50:52.016Z,68.50
2018-04-10T01:53:19.575Z,68.50
2018-04-10T01:55:47.044Z,68.50
2018-04-10T01:58:14.512Z,68.70
2018-04-10T02:00:41.995Z,68.80
2018-04-10T02:03:10.194Z,68.70
2018-04-10T02:05:37.710Z,68.70
2018-04-10T02:08:05.163Z,68.70
2018-04-10T02:10:32.640Z,68.80
2018-04-10T02:13:00.100Z,68.90
2018-04-10T02:15:28.261Z,69.10
2018-04-10T02:17:55.760Z,69.10
2018-04-10T02:20:23.716Z,68.90
2018-04-10T02:22:51.182Z,68.90
2018-04-10T02:25:18.696Z,69.10
2018-04-10T02:27:46.193Z,69.20
2018-04-10T02:30:13.673Z,69.30
2018-04-10T02:32:41.134Z,69.30
2018-04-10T02:35:09.036Z,69.50
2018-04-10T02:37:37.026Z,69.50
2018-04-10T02:40:04.488Z,69.50
2018-04-10T02:42:32.022Z,69.50
2018-04-10T02:44:59.959Z,69.70
2018-04-10T02:47:27.535Z,69.70
2018-04-10T02:49:55.001Z,69.70
2018-04-10T02:52:22.468Z,69.70
2018-04-10T02:54:50.352Z,70.00
2018-04-10T02:57:18.203Z,69.90
2018-04-10T02:59:45.744Z,69.90
2018-04-10T03:02:13.208Z,70.00
2018-04-10T03:04:40.696Z,70.10
2018-04-10T03:07:08.644Z,70.10
2018-04-10T03:09:36.140Z,70.10
2018-04-10T03:12:04.015Z,70.30
2018-04-10T03:14:31.904Z,70.50
2018-04-10T03:16:59.413Z,70.50
2018-04-10T03:19:26.987Z,70.60
2018-04-10T03:21:54.471Z,70.70
2018-04-10T03:24:22.328Z,70.80
2018-04-10T03:26:50.089Z,70.80
2018-04-10T03:29:17.553Z,70.90
2018-04-10T03:31:45.124Z,70.90
2018-04-10T03:34:12.609Z,71.00
2018-04-10T03:36:40.482Z,71.10
2018-04-10T03:39:08.403Z,71.20
2018-04-10T03:41:35.883Z,71.20
2018-04-10T03:44:03.366Z,71.30
2018-04-10T03:46:30.880Z,71.20
2018-04-10T03:48:58.343Z,71.40
2018-04-10T03:51:25.801Z,71.50
2018-04-10T03:53:53.288Z,71.60
2018-04-10T03:56:20.856Z,71.50
2018-04-10T03:58:48.905Z,71.60
2018-04-10T04:01:16.372Z,71.40
2018-04-10T04:03:43.836Z,71.60
2018-04-10T04:06:11.304Z,71.70
2018-04-10T04:08:38.882Z,71.60
2018-04-10T04:11:06.344Z,71.50
2018-04-10T04:13:33.833Z,71.50
2018-04-10T04:16:01.703Z,71.50
2018-04-10T04:18:41.112Z,71.50
2018-04-10T04:21:20.608Z,71.50
2018-04-10T04:23:48.097Z,71.50
2018-04-10T04:26:15.566Z,71.50
2018-04-10T04:28:43.139Z,71.70
2018-04-10T04:31:10.587Z,71.70
2018-04-10T04:33:38.072Z,71.50
2018-04-10T04:36:05.629Z,71.50
2018-04-10T04:38:33.102Z,71.60
2018-04-10T04:41:00.970Z,71.40
2018-04-10T04:43:28.444Z,71.40
2018-04-10T04:45:56.546Z,71.40
2018-04-10T04:48:24.028Z,71.40
2018-04-10T04:50:51.540Z,71.60
2018-04-10T04:53:19.008Z,71.40
2018-04-10T04:55:46.867Z,71.40
2018-04-10T04:58:14.347Z,71.40
2018-04-10T05:00:42.287Z,71.80
2018-04-10T05:03:09.768Z,71.80
2018-04-10T05:05:37.250Z,71.90
2018-04-10T05:08:05.176Z,71.80
2018-04-10T05:10:32.664Z,71.80
2018-04-10T05:13:00.125Z,71.90
2018-04-10T05:15:27.641Z,71.70
2018-04-10T05:17:55.563Z,71.60
2018-04-10T05:20:23.040Z,71.60
2018-04-10T05:22:50.941Z,71.90
2018-04-10T05:25:18.404Z,71.90
2018-04-10T05:27:45.870Z,72.20
2018-04-10T05:30:13.345Z,72.10
2018-04-10T05:32:40.816Z,72.10
2018-04-10T05:35:08.299Z,72.40
2018-04-10T05:37:35.851Z,72.30
2018-04-10T05:40:03.425Z,72.30
2018-04-10T05:42:30.885Z,72.20
2018-04-10T05:44:58.355Z,72.20
2018-04-10T05:47:25.811Z,72.30
2018-04-10T05:49:53.290Z,72.70
2018-04-10T05:52:20.831Z,72.90
2018-04-10T05:54:48.320Z,72.70
2018-04-10T05:57:15.780Z,72.50
2018-04-10T05:59:43.744Z,72.60
2018-04-10T06:14:59.313Z,71.10
2018-04-10T06:17:26.789Z,70.80
2018-04-10T06:19:54.261Z,70.60
2018-04-10T06:22:22.568Z,70.80
2018-04-10T06:24:50.064Z,71.20
2018-04-10T06:27:17.635Z,71.40
2018-04-10T06:29:45.093Z,71.50
2018-04-10T06:32:12.573Z,71.50
2018-04-10T06:34:40.036Z,71.50
2018-04-10T06:37:07.615Z,71.50
2018-04-10T06:39:35.467Z,71.50
2018-04-10T06:42:02.944Z,71.50
2018-04-10T06:44:30.483Z,71.40
2018-04-10T06:46:57.958Z,71.40
2018-04-10T06:49:25.519Z,71.50
2018-04-10T06:51:53.021Z,71.30
2018-04-10T06:54:20.540Z,71.20
2018-04-10T06:56:48.018Z,71.30
2018-04-10T06:59:15.495Z,71.10
2018-04-10T07:01:43.443Z,71.00
2018-04-10T07:04:10.925Z,71.00
2018-04-10T07:06:38.786Z,70.40
2018-04-10T07:09:06.340Z,70.40
2018-04-10T07:11:34.505Z,70.20
2018-04-10T07:14:02.183Z,70.10
2018-04-10T07:16:29.647Z,70.10
2018-04-10T07:18:57.124Z,70.00
2018-04-10T07:21:25.137Z,69.90
2018-04-10T07:23:52.641Z,69.90
2018-04-10T07:26:20.200Z,70.00
2018-04-10T07:28:47.668Z,69.90
2018-04-10T07:31:15.243Z,69.80
2018-04-10T07:33:42.719Z,69.80
2018-04-10T07:36:10.624Z,69.30
2018-04-10T07:38:38.096Z,69.30
2018-04-10T07:41:05.563Z,69.10
2018-04-10T07:43:33.095Z,69.10
2018-04-10T07:46:01.062Z,69.00
2018-04-10T07:48:28.703Z,69.00
2018-04-10T07:50:56.172Z,68.90
2018-04-10T07:53:23.713Z,68.80
2018-04-10T07:55:51.209Z,68.80
2018-04-10T07:58:19.160Z,69.40
2018-04-10T08:00:46.784Z,69.40
2018-04-10T08:03:14.311Z,69.70
2018-04-10T08:05:41.778Z,69.60
2018-04-10T08:08:09.638Z,69.60
2018-04-10T08:10:37.108Z,69.60
2018-04-10T08:13:04.568Z,69.50
2018-04-10T08:15:32.450Z,69.30
2018-04-10T08:18:00.314Z,68.80
2018-04-10T08:20:28.273Z,68.60
2018-04-10T08:22:55.722Z,68.60
2018-04-10T08:25:23.196Z,68.40
2018-04-10T08:27:50.748Z,68.50
2018-04-10T08:30:18.257Z,68.60
2018-04-10T08:32:45.732Z,68.80
2018-04-10T08:35:13.248Z,69.00
2018-04-10T08:37:40.708Z,69.20
2018-04-10T08:40:08.269Z,69.20
2018-04-10T08:42:35.724Z,69.00
2018-04-10T08:45:03.209Z,69.00
2018-04-10T08:47:31.066Z,68.70
2018-04-10T08:57:37.881Z,67.30
2018-04-10T09:00:05.463Z,66.10
2018-04-10T09:02:32.924Z,65.80
2018-04-10T09:05:00.482Z,65.50
2018-04-10T09:07:27.944Z,65.20
2018-04-10T09:09:55.415Z,64.70
2018-04-10T09:12:22.880Z,63.80
2018-04-10T09:14:50.396Z,63.80
2018-04-10T09:17:17.901Z,63.20
2018-04-10T09:19:45.452Z,62.90
2018-04-10T09:22:13.019Z,62.00
2018-04-10T09:24:40.513Z,61.30
2018-04-10T09:27:08.464Z,59.90
2018-04-10T09:29:36.033Z,59.90
2018-04-10T09:32:03.597Z,60.60
2018-04-10T09:34:31.059Z,60.10
2018-04-10T09:36:59.031Z,59.00
2018-04-10T09:39:26.594Z,58.40
2018-04-10T09:41:54.068Z,57.90
2018-04-10T09:44:21.615Z,57.50
2018-04-10T09:46:49.085Z,56.90
2018-04-10T09:49:16.552Z,57.20
2018-04-10T09:51:44.033Z,57.20
2018-04-10T09:54:11.889Z,56.20
2018-04-10T09:56:39.392Z,56.20
2018-04-10T09:59:06.858Z,55.50
2018-04-10T10:01:34.368Z,55.10
2018-04-10T10:04:01.927Z,55.00
2018-04-10T10:06:29.504Z,54.30
2018-04-10T10:08:56.978Z,54.40
2018-04-10T10:11:24.838Z,54.40
2018-04-10T10:13:52.393Z,54.40
2018-04-10T10:16:19.850Z,53.60
2018-04-10T10:18:47.438Z,53.80
2018-04-10T10:21:14.893Z,53.60
2018-04-10T10:23:42.356Z,53.20
2018-04-10T10:26:09.827Z,52.90
2018-04-10T10:28:37.351Z,52.90
2018-04-10T10:31:04.809Z,52.50
2018-04-10T10:33:32.910Z,51.40
2018-04-10T10:36:00.358Z,51.10
2018-04-10T10:38:28.003Z,50.30
2018-04-10T10:40:55.540Z,50.20
2018-04-10T10:43:23.063Z,49.30
2018-04-10T10:45:50.634Z,49.70
2018-04-10T10:48:18.185Z,48.70
2018-04-10T10:50:45.641Z,48.50
2018-04-10T10:53:13.103Z,47.90
2018-04-10T10:55:40.559Z,47.60
2018-04-10T10:58:08.100Z,47.50
2018-04-10T11:00:35.499Z,47.10
2018-04-10T11:03:03.124Z,47.00
2018-04-10T11:05:30.616Z,46.20
2018-04-10T11:07:58.085Z,45.90
2018-04-10T11:10:25.555Z,45.50
2018-04-10T11:12:53.018Z,44.70
2018-04-10T11:15:20.469Z,45.10
2018-04-10T11:17:48.036Z,44.90
2018-04-10T11:20:15.497Z,45.00
2018-04-10T11:22:42.950Z,43.60
2018-04-10T11:25:10.409Z,43.60
2018-04-10T11:27:37.877Z,43.30
2018-04-10T11:30:05.350Z,42.60
2018-04-10T11:32:32.804Z,43.20
2018-04-10T11:35:00.308Z,43.40
2018-04-10T11:37:28.167Z,43.90
2018-04-10T11:39:55.704Z,43.90
2018-04-10T11:42:23.163Z,43.60
2018-04-10T11:44:50.660Z,43.90
2018-04-10T11:47:18.605Z,44.40
2018-04-10T11:49:46.383Z,44.40
2018-04-10T11:52:13.841Z,43.70
2018-04-10T11:54:41.386Z,42.70
2018-04-10T11:57:08.841Z,42.20
2018-04-10T11:59:36.374Z,43.20
2018-04-10T12:02:04.124Z,42.00
2018-04-10T12:04:31.562Z,41.80
2018-04-10T12:06:59.016Z,42.30
2018-04-10T12:09:26.480Z,41.80
2018-04-10T12:11:53.934Z,41.50
2018-04-10T12:14:21.669Z,41.20
2018-04-10T12:19:22.483Z,42.00
2018-04-10T12:21:49.938Z,42.20
2018-04-10T12:24:17.577Z,42.00
2018-04-10T12:26:45.259Z,41.60
2018-04-10T12:29:12.721Z,41.20
2018-04-10T12:31:41.387Z,41.90
2018-04-10T12:34:09.192Z,41.50
2018-04-10T12:36:36.772Z,41.20
2018-04-10T12:39:04.352Z,41.30
2018-04-10T12:41:32.427Z,40.60
2018-04-10T12:44:00.375Z,40.70
2018-04-10T12:46:28.056Z,40.70
2018-04-10T12:48:55.936Z,40.70
2018-04-10T12:51:24.552Z,40.70
2018-04-10T12:53:52.022Z,40.80
2018-04-10T12:56:19.627Z,41.40
2018-04-10T12:58:47.089Z,41.10
2018-04-10T13:01:14.652Z,41.20
2018-04-10T13:03:42.115Z,40.70
2018-04-10T13:06:09.565Z,40.90
2018-04-10T13:08:37.080Z,40.90
2018-04-10T13:11:04.532Z,40.90
2018-04-10T13:13:32.423Z,40.10
2018-04-10T13:15:59.872Z,40.10
2018-04-10T13:18:27.722Z,39.70
2018-04-10T13:20:55.229Z,39.70
2018-04-10T13:23:23.736Z,39.60
2018-04-10T13:25:51.191Z,39.80
2018-04-10T13:28:18.640Z,39.30
2018-04-10T13:30:46.094Z,39.80
2018-04-10T13:33:13.604Z,40.00
2018-04-10T13:35:41.074Z,39.60
2018-04-10T13:38:08.546Z,39.30
2018-04-10T13:40:36.494Z,39.50
2018-04-10T13:43:03.963Z,39.60
2018-04-10T13:45:31.484Z,39.20
2018-04-10T13:47:58.934Z,38.60
2018-04-10T13:50:26.388Z,38.60
2018-04-10T13:52:54.241Z,38.60
2018-04-10T13:55:22.100Z,38.30
2018-04-10T13:57:49.648Z,38.30
2018-04-10T14:00:17.107Z,38.40
2018-04-10T14:02:44.559Z,38.50
2018-04-10T14:05:12.036Z,37.70
2018-04-10T14:07:39.500Z,38.40
2018-04-10T14:10:07.263Z,37.30
2018-04-10T14:12:34.735Z,37.50
2018-04-10T14:15:02.199Z,37.40
2018-04-10T14:17:29.655Z,37.50
2018-04-10T14:19:57.112Z,36.90
2018-04-10T14:22:24.593Z,36.40
2018-04-10T14:24:52.039Z,36.20
2018-04-10T14:27:19.484Z,36.50
2018-04-10T14:29:46.964Z,36.10
2018-04-10T14:32:14.570Z,36.80
2018-04-10T14:34:42.077Z,37.30
2018-04-10T14:37:09.555Z,37.00
2018-04-10T14:39:37.008Z,38.00
2018-04-10T14:42:04.471Z,37.40
2018-04-10T14:44:31.930Z,38.60
2018-04-10T14:46:59.443Z,38.00
2018-04-10T14:49:27.290Z,38.00
2018-04-10T14:51:54.891Z,38.00
2018-04-10T14:54:22.378Z,38.70
2018-04-10T14:56:49.865Z,38.60
2018-04-10T14:59:17.382Z,39.40
2018-04-10T15:01:44.858Z,40.50
2018-04-10T15:04:12.303Z,40.90
2018-04-10T15:06:39.751Z,41.30
2018-04-10T15:09:07.690Z,42.50
2018-04-10T15:11:35.259Z,42.50
2018-04-10T15:14:02.720Z,42.60
2018-04-10T15:16:30.277Z,42.60
2018-04-10T15:18:57.730Z,43.20
2018-04-10T15:21:25.188Z,43.60
2018-04-10T15:23:52.691Z,43.80
2018-04-10T15:26:20.562Z,44.30
2018-04-10T15:28:48.518Z,44.90
2018-04-10T15:31:16.086Z,44.80
2018-04-10T15:33:43.647Z,45.10
2018-04-10T15:36:11.148Z,44.80
2018-04-10T15:38:38.604Z,45.20
2018-04-10T15:41:06.452Z,45.90
2018-04-10T15:43:33.996Z,46.00
2018-04-10T15:46:01.455Z,45.80
2018-04-10T15:48:29.024Z,46.60
2018-04-10T15:50:56.510Z,47.90
2018-04-10T15:53:24.053Z,48.50
2018-04-10T15:55:51.551Z,49.10
2018-04-10T15:58:19.520Z,49.30
2018-04-10T16:00:47.459Z,49.30
2018-04-10T16:03:14.920Z,49.30
2018-04-10T16:05:42.383Z,49.40
2018-04-10T16:08:09.837Z,49.60
2018-04-10T16:10:37.294Z,49.80
2018-04-10T16:13:04.882Z,50.20
2018-04-10T16:15:32.796Z,50.50
2018-04-10T16:18:00.298Z,50.90
2018-04-10T16:20:27.774Z,50.90
2018-04-10T16:22:55.498Z,51.40
2018-04-10T16:25:23.103Z,51.50
2018-04-10T16:27:50.565Z,51.60
2018-04-10T16:30:18.127Z,51.80
2018-04-10T16:32:45.661Z,51.70
2018-04-10T16:35:13.125Z,51.80
2018-04-10T16:37:40.616Z,51.80
2018-04-10T16:40:08.092Z,52.10
2018-04-10T16:42:35.582Z,51.70
2018-04-10T16:45:03.531Z,51.90
2018-04-10T16:47:30.984Z,51.90
2018-04-10T16:49:58.539Z,51.90
2018-04-10T16:52:26.117Z,52.20
2018-04-10T16:54:53.590Z,52.10
2018-04-10T16:57:21.139Z,52.20
2018-04-10T16:59:49.101Z,52.40
2018-04-10T17:02:16.604Z,52.80
2018-04-10T17:04:44.966Z,53.80
2018-04-10T17:07:12.469Z,53.80
2018-04-10T17:09:40.345Z,54.50
2018-04-10T17:12:07.893Z,56.00
2018-04-10T17:14:35.509Z,56.60
2018-04-10T17:17:02.990Z,56.60
2018-04-10T17:19:30.448Z,56.40
2018-04-10T17:21:57.924Z,56.30
2018-04-10T17:24:25.584Z,56.20
2018-04-10T17:26:53.449Z,56.10
2018-04-10T17:29:21.081Z,56.30
2018-04-10T17:31:48.569Z,56.40
2018-04-10T17:34:16.016Z,56.50
2018-04-10T17:36:43.578Z,56.30
2018-04-10T17:39:11.137Z,56.50
2018-04-10T17:41:39.557Z,56.40
2018-04-10T17:44:07.078Z,56.40
2018-04-10T17:46:35.287Z,56.60
2018-04-10T17:49:02.824Z,56.60
2018-04-10T17:51:30.297Z,56.60
2018-04-10T17:53:57.742Z,56.80
2018-04-10T17:56:25.203Z,56.50
2018-04-10T17:58:52.868Z,56.70
2018-04-10T18:01:20.354Z,56.80
2018-04-10T18:03:47.868Z,56.50
2018-04-10T18:06:15.411Z,56.50
2018-04-10T18:08:42.873Z,57.00
2018-04-10T18:11:10.323Z,56.80
2018-04-10T18:13:38.236Z,56.80
2018-04-10T18:16:05.848Z,57.30
2018-04-10T18:18:33.436Z,57.20
2018-04-10T18:21:00.886Z,56.90
2018-04-10T18:23:28.457Z,56.80
2018-04-10T18:25:56.046Z,56.80
2018-04-10T18:28:23.728Z,56.80
2018-04-10T18:30:51.284Z,57.00
2018-04-10T18:33:18.810Z,57.10
2018-04-10T18:35:46.281Z,57.10
2018-04-10T18:38:14.416Z,57.40
2018-04-10T18:40:41.935Z,57.70
2018-04-10T18:43:09.917Z,58.30
2018-04-10T18:45:37.996Z,58.30
2018-04-10T18:48:05.847Z,58.80
2018-04-10T18:50:33.315Z,58.80
2018-04-10T18:53:00.790Z,59.20
2018-04-10T18:55:28.643Z,59.40
2018-04-10T18:57:56.116Z,59.40
2018-04-10T19:00:23.977Z,59.30
2018-04-10T19:02:51.839Z,59.40
2018-04-10T19:05:19.315Z,59.40
2018-04-10T19:07:46.858Z,59.30
2018-04-10T19:10:14.319Z,59.30
2018-04-10T19:12:41.791Z,59.20
2018-04-10T19:15:09.749Z,59.40
2018-04-10T19:17:37.312Z,59.40
2018-04-10T19:20:04.889Z,59.10
2018-04-10T19:22:32.338Z,59.30
2018-04-10T19:24:59.819Z,59.60
2018-04-10T19:27:27.299Z,59.60
2018-04-10T19:29:55.156Z,60.10
2018-04-10T19:32:22.700Z,60.10
2018-04-10T19:34:50.178Z,60.20
2018-04-10T19:37:18.224Z,60.60
2018-04-10T19:39:45.709Z,61.50
2018-04-10T19:42:13.241Z,62.00
2018-04-10T19:44:40.737Z,62.70
2018-04-10T19:47:08.298Z,63.50
2018-04-10T19:49:36.840Z,63.20
2018-04-10T19:52:04.370Z,63.90
2018-04-10T19:54:32.349Z,64.30
2018-04-10T19:57:00.227Z,64.50
2018-04-10T19:59:28.167Z,64.60
2018-04-10T20:01:55.637Z,64.60
2018-04-10T20:04:23.137Z,64.60
2018-04-10T20:06:51.491Z,64.10
2018-04-10T20:09:19.073Z,65.10
2018-04-10T20:11:46.940Z,64.80
2018-04-10T20:14:14.803Z,64.70
2018-04-10T20:16:42.686Z,65.30
2018-04-10T20:19:10.624Z,65.90
2018-04-10T20:21:38.084Z,65.90
2018-04-10T20:24:05.553Z,66.80
2018-04-10T20:26:33.031Z,67.10
2018-04-10T20:29:00.912Z,67.90
2018-04-10T20:31:28.829Z,69.00
2018-04-10T20:33:56.300Z,69.00
2018-04-10T20:36:23.798Z,69.70
2018-04-10T20:38:51.667Z,71.40
2018-04-10T20:41:19.155Z,71.40
2018-04-10T20:43:46.656Z,70.60
2018-04-10T20:46:14.147Z,72.00
2018-04-10T20:48:41.647Z,73.60
2018-04-10T20:51:09.116Z,74.10
2018-04-10T20:53:36.618Z,75.20
2018-04-10T20:56:04.143Z,75.60
2018-04-10T20:58:31.646Z,75.40
2018-04-10T21:00:59.211Z,75.40
2018-04-10T21:03:26.702Z,75.10
2018-04-10T21:05:54.568Z,74.40
2018-04-10T21:08:22.139Z,74.40
2018-04-10T21:10:50.000Z,74.00
2018-04-10T21:13:17.459Z,74.00
2018-04-10T21:15:44.964Z,74.50
2018-04-10T21:18:12.431Z,75.10
2018-04-10T21:20:40.034Z,74.20
2018-04-10T21:23:07.496Z,75.30
2018-04-10T21:25:34.959Z,75.30
2018-04-10T21:28:02.427Z,75.40
2018-04-10T21:30:29.889Z,75.20
2018-04-10T21:32:57.357Z,75.50
2018-04-10T21:35:24.808Z,76.20
2018-04-10T21:37:52.392Z,75.90
2018-04-10T21:40:20.477Z,75.80
2018-04-10T21:42:53.952Z,75.80
2018-04-10T21:45:21.609Z,75.80
2018-04-10T21:47:49.084Z,76.30
2018-04-10T21:50:16.555Z,76.50
2018-04-10T21:52:44.110Z,77.10
2018-04-10T21:55:11.706Z,77.20
2018-04-10T21:57:39.645Z,77.00
2018-04-10T22:00:07.098Z,77.00
2018-04-10T22:02:34.569Z,77.20
2018-04-10T22:05:02.026Z,77.30
2018-04-10T22:07:29.892Z,77.90
2018-04-10T22:09:57.478Z,77.90
2018-04-10T22:12:25.052Z,77.90
2018-04-10T22:14:52.932Z,77.50
2018-04-10T22:17:20.775Z,78.00
2018-04-10T22:19:48.334Z,78.00
2018-04-10T22:22:15.850Z,77.90
2018-04-10T22:24:43.372Z,77.90
2018-04-10T22:27:10.831Z,77.90
2018-04-10T22:29:38.424Z,78.00
2018-04-10T22:32:06.294Z,78.50
2018-04-10T22:34:34.168Z,78.70
2018-04-10T22:37:01.646Z,78.70
2018-04-10T22:39:29.136Z,78.90
2018-04-10T22:41:56.689Z,79.00
2018-04-10T22:44:24.153Z,78.40
2018-04-10T22:46:51.717Z,78.10
2018-04-10T22:49:20.060Z,78.10
2018-04-10T22:51:47.530Z,78.30
2018-04-10T22:54:14.991Z,78.50
2018-04-10T22:56:42.473Z,78.60
2018-04-10T22:59:10.055Z,78.20
2018-04-10T23:01:37.613Z,77.60
2018-04-10T23:04:05.085Z,77.30
2018-04-10T23:06:32.551Z,77.30
2018-04-10T23:09:00.113Z,77.20
2018-04-10T23:11:27.607Z,77.20
2018-04-10T23:13:55.460Z,76.90
2018-04-10T23:16:22.974Z,76.90
2018-04-10T23:18:50.441Z,76.70
2018-04-10T23:21:17.900Z,76.50
2018-04-10T23:23:45.521Z,76.70
2018-04-10T23:26:12.984Z,76.70
2018-04-10T23:28:40.433Z,76.60
2018-04-10T23:31:07.897Z,76.50
2018-04-10T23:33:35.410Z,77.00
2018-04-10T23:36:03.299Z,77.30
2018-04-10T23:38:30.816Z,77.30
2018-04-10T23:40:58.283Z,77.80
2018-04-10T23:43:25.750Z,77.60
2018-04-10T23:45:53.216Z,78.00
2018-04-10T23:48:20.681Z,78.20
2018-04-10T23:50:48.635Z,78.00
2018-04-10T23:53:16.106Z,78.00
2018-04-10T23:55:43.566Z,77.90
2018-04-10T23:58:11.119Z,78.30
